createdAt,value
2018-01-31T01:52:20.764Z,6.10
2018-01-31T01:53:07.975Z,7.90
2018-01-31T01:54:07.931Z,5.00
2018-01-31T01:55:07.925Z,6.80
2018-01-31T01:56:07.926Z,7.10
2018-01-31T01:57:07.922Z,8.10
2018-01-31T01:58:07.956Z,6.00
2018-01-31T01:59:07.912Z,7.90
2018-01-31T02:00:07.915Z,6.60
2018-01-31T02:01:07.909Z,6.00
2018-01-31T02:02:07.901Z,7.40
2018-01-31T02:03:07.942Z,7.60
2018-01-31T02:04:07.901Z,7.70
2018-01-31T02:05:07.894Z,6.80
2018-01-31T02:06:07.895Z,8.00
2018-01-31T02:07:07.885Z,7.60
2018-01-31T02:08:07.930Z,7.40
2018-01-31T02:09:07.881Z,6.70
2018-01-31T02:10:07.920Z,6.60
2018-01-31T02:11:07.871Z,7.70
2018-01-31T02:12:07.869Z,7.40
2018-01-31T02:13:07.867Z,7.40
2018-01-31T02:14:07.907Z,6.50
2018-01-31T02:15:07.859Z,6.80
2018-01-31T02:16:07.855Z,9.30
2018-01-31T02:17:07.853Z,7.70
2018-01-31T02:18:07.941Z,9.70
2018-01-31T02:19:07.898Z,7.00
2018-01-31T02:20:07.892Z,9.40
2018-01-31T02:21:07.888Z,8.00
2018-01-31T02:22:07.891Z,7.80
2018-01-31T02:23:07.925Z,10.40
2018-01-31T02:24:07.879Z,9.00
2018-01-31T02:25:07.875Z,10.00
2018-01-31T02:26:07.875Z,9.70
2018-01-31T02:27:07.870Z,8.80
2018-01-31T02:28:07.927Z,7.60
2018-01-31T02:29:07.861Z,7.00
2018-01-31T02:30:07.861Z,8.00
2018-01-31T02:31:07.899Z,7.90
2018-01-31T02:32:07.854Z,5.80
2018-01-31T02:33:07.893Z,9.10
2018-01-31T02:34:07.849Z,7.30
2018-01-31T02:35:07.846Z,6.70
2018-01-31T02:36:07.844Z,7.10
2018-01-31T02:37:07.837Z,7.00
2018-01-31T02:38:07.894Z,10.30
2018-01-31T02:39:07.829Z,7.70
2018-01-31T02:40:07.829Z,9.90
2018-01-31T02:41:07.864Z,4.10
2018-01-31T02:42:07.819Z,8.80
2018-01-31T02:43:07.868Z,8.70
2018-01-31T02:44:07.815Z,8.30
2018-01-31T02:45:07.813Z,7.30
2018-01-31T02:46:07.806Z,8.30
2018-01-31T02:47:07.804Z,7.20
2018-01-31T02:48:07.801Z,8.60
2018-01-31T02:49:07.841Z,7.90
2018-01-31T02:50:07.794Z,7.00
2018-01-31T02:51:07.796Z,6.50
2018-01-31T02:52:07.789Z,6.70
2018-01-31T02:53:07.782Z,6.40
2018-01-31T02:54:07.821Z,5.50
2018-01-31T02:55:07.779Z,5.40
2018-01-31T02:56:07.777Z,8.70
2018-01-31T02:57:07.770Z,5.90
2018-01-31T02:58:07.768Z,4.60
2018-01-31T02:59:07.938Z,5.80
2018-01-31T03:00:07.803Z,6.70
2018-01-31T03:01:07.757Z,8.30
2018-01-31T03:02:07.756Z,5.90
2018-01-31T03:03:07.751Z,5.80
2018-01-31T03:04:07.750Z,5.40
2018-01-31T03:05:07.788Z,6.90
2018-01-31T03:06:07.743Z,6.80
2018-01-31T03:07:07.740Z,8.00
2018-01-31T03:08:07.735Z,7.60
2018-01-31T03:09:07.788Z,8.30
2018-01-31T03:10:07.768Z,11.30
2018-01-31T03:11:07.725Z,22.00
2018-01-31T03:12:07.726Z,12.00
2018-01-31T03:13:07.718Z,7.90
2018-01-31T03:14:07.717Z,8.50
2018-01-31T03:15:07.749Z,6.10
2018-01-31T03:16:07.709Z,6.50
2018-01-31T03:17:08.096Z,6.70
2018-01-31T03:18:07.707Z,7.20
2018-01-31T03:19:07.701Z,7.20
2018-01-31T03:20:07.761Z,8.40
2018-01-31T03:21:07.696Z,7.90
2018-01-31T03:22:07.690Z,9.10
2018-01-31T03:23:07.686Z,6.80
2018-01-31T03:24:07.684Z,6.70
2018-01-31T03:25:07.680Z,7.00
2018-01-31T03:26:07.719Z,8.60
2018-01-31T03:27:07.676Z,10.20
2018-01-31T03:28:08.514Z,9.70
2018-01-31T03:29:07.672Z,6.40
2018-01-31T03:30:07.667Z,7.60
2018-01-31T03:31:07.703Z,10.10
2018-01-31T03:32:07.661Z,9.00
2018-01-31T03:33:07.653Z,7.00
2018-01-31T03:34:07.656Z,7.80
2018-01-31T03:35:07.649Z,6.60
2018-01-31T03:36:07.704Z,9.70
2018-01-31T03:37:07.643Z,8.10
2018-01-31T03:38:08.482Z,7.30
2018-01-31T03:39:07.748Z,7.00
2018-01-31T03:40:08.582Z,10.30
2018-01-31T03:41:07.668Z,10.00
2018-01-31T03:42:07.627Z,8.80
2018-01-31T03:43:07.625Z,10.60
2018-01-31T03:44:07.621Z,8.10
2018-01-31T03:45:07.646Z,10.00
2018-01-31T03:46:07.655Z,7.50
2018-01-31T03:47:07.610Z,7.90
2018-01-31T03:48:07.609Z,11.10
2018-01-31T03:49:07.604Z,10.90
2018-01-31T03:50:07.601Z,11.10
2018-01-31T03:51:07.635Z,12.30
2018-01-31T03:52:07.596Z,9.90
2018-01-31T03:53:07.595Z,9.60
2018-01-31T03:54:07.590Z,12.10
2018-01-31T03:55:07.632Z,6.60
2018-01-31T03:56:07.584Z,13.10
2018-01-31T03:57:07.579Z,10.30
2018-01-31T03:58:07.576Z,9.00
2018-01-31T03:59:07.573Z,10.50
2018-01-31T04:00:07.623Z,10.80
2018-01-31T04:01:07.566Z,13.20
2018-01-31T04:02:07.563Z,12.80
2018-01-31T04:03:07.562Z,8.20
2018-01-31T04:04:07.560Z,12.10
2018-01-31T04:05:07.556Z,14.10
2018-01-31T04:06:07.608Z,13.00
2018-01-31T04:07:07.545Z,11.60
2018-01-31T04:08:07.542Z,12.50
2018-01-31T04:09:07.541Z,12.40
2018-01-31T04:10:07.537Z,12.30
2018-01-31T04:11:07.575Z,11.50
2018-01-31T04:12:07.570Z,13.70
2018-01-31T04:13:07.527Z,12.50
2018-01-31T04:14:07.528Z,16.30
2018-01-31T04:15:07.519Z,15.70
2018-01-31T04:16:07.519Z,11.30
2018-01-31T04:17:07.551Z,15.50
2018-01-31T04:18:07.512Z,12.20
2018-01-31T04:19:07.536Z,13.30
2018-01-31T04:20:07.502Z,10.90
2018-01-31T04:21:07.500Z,15.70
2018-01-31T04:22:07.543Z,11.40
2018-01-31T04:23:07.496Z,11.50
2018-01-31T04:24:07.491Z,13.70
2018-01-31T04:25:07.486Z,14.80
2018-01-31T04:26:07.487Z,14.00
2018-01-31T04:27:07.540Z,14.60
2018-01-31T04:28:07.478Z,12.90
2018-01-31T04:29:07.471Z,10.60
2018-01-31T04:30:07.473Z,11.50
2018-01-31T04:31:07.468Z,9.00
2018-01-31T04:32:07.524Z,10.10
2018-01-31T04:33:07.460Z,12.20
2018-01-31T04:34:07.460Z,9.60
2018-01-31T04:35:07.455Z,13.60
2018-01-31T04:36:07.457Z,10.20
2018-01-31T04:37:07.488Z,12.30
2018-01-31T04:38:07.444Z,10.80
2018-01-31T04:39:07.444Z,11.30
2018-01-31T04:40:07.439Z,10.90
2018-01-31T04:41:07.436Z,11.20
2018-01-31T04:42:07.493Z,10.60
2018-01-31T04:43:07.427Z,13.60
2018-01-31T04:44:07.425Z,12.70
2018-01-31T04:45:07.422Z,12.30
2018-01-31T04:46:07.420Z,11.10
2018-01-31T04:47:07.458Z,13.10
2018-01-31T04:48:07.410Z,11.30
2018-01-31T04:49:07.409Z,10.30
2018-01-31T04:50:07.407Z,9.30
2018-01-31T04:51:07.402Z,11.80
2018-01-31T04:52:07.439Z,12.40
2018-01-31T04:53:07.397Z,10.30
2018-01-31T04:54:07.397Z,14.90
2018-01-31T04:55:07.393Z,13.20
2018-01-31T04:56:07.386Z,11.10
2018-01-31T04:57:07.446Z,13.60
2018-01-31T04:58:07.382Z,11.80
2018-01-31T04:59:07.377Z,10.80
2018-01-31T05:00:07.375Z,13.20
2018-01-31T05:01:07.373Z,14.20
2018-01-31T05:02:07.407Z,16.80
2018-01-31T05:03:07.367Z,15.20
2018-01-31T05:04:07.362Z,12.80
2018-01-31T05:05:07.361Z,13.80
2018-01-31T05:06:07.357Z,9.00
2018-01-31T05:07:07.416Z,11.70
2018-01-31T05:08:07.349Z,13.50
2018-01-31T05:09:07.352Z,12.80
2018-01-31T05:10:07.590Z,14.60
2018-01-31T05:11:07.389Z,13.80
2018-01-31T05:12:07.342Z,14.70
2018-01-31T05:13:07.332Z,14.30
2018-01-31T05:14:07.333Z,15.60
2018-01-31T05:15:07.327Z,13.50
2018-01-31T05:16:07.325Z,15.20
2018-01-31T05:17:07.363Z,9.30
2018-01-31T05:18:07.318Z,17.80
2018-01-31T05:19:07.316Z,11.50
2018-01-31T05:20:07.314Z,14.10
2018-01-31T05:21:07.310Z,12.80
2018-01-31T05:22:07.365Z,13.00
2018-01-31T05:23:07.340Z,13.40
2018-01-31T05:24:07.299Z,14.00
2018-01-31T05:25:07.298Z,13.90
2018-01-31T05:26:07.292Z,13.40
2018-01-31T05:27:07.328Z,14.00
2018-01-31T05:28:07.291Z,11.30
2018-01-31T05:29:07.291Z,10.80
2018-01-31T05:30:07.279Z,13.50
2018-01-31T05:31:07.278Z,13.20
2018-01-31T05:32:07.316Z,11.50
2018-01-31T05:33:07.273Z,13.20
2018-01-31T05:34:07.269Z,12.40
2018-01-31T05:35:07.266Z,13.60
2018-01-31T05:36:07.266Z,13.30
2018-01-31T05:37:07.300Z,12.90
2018-01-31T05:38:07.263Z,13.40
2018-01-31T05:39:07.812Z,9.30
2018-01-31T05:40:07.255Z,11.70
2018-01-31T05:41:07.254Z,12.50
2018-01-31T05:42:07.286Z,11.20
2018-01-31T05:43:07.250Z,9.20
2018-01-31T05:44:07.244Z,13.70
2018-01-31T05:45:07.238Z,15.60
2018-01-31T05:46:07.247Z,8.40
2018-01-31T05:47:07.283Z,13.50
2018-01-31T05:48:07.234Z,12.00
2018-01-31T05:49:07.229Z,9.30
2018-01-31T05:50:07.228Z,12.00
2018-01-31T05:51:07.219Z,11.20
2018-01-31T05:52:07.223Z,12.30
2018-01-31T05:53:07.261Z,11.30
2018-01-31T05:54:07.607Z,11.70
2018-01-31T05:55:07.210Z,9.60
2018-01-31T05:56:07.209Z,10.90
2018-01-31T05:57:07.204Z,10.10
2018-01-31T05:58:07.244Z,7.80
2018-01-31T05:59:07.202Z,10.40
2018-01-31T06:00:07.200Z,9.10
2018-01-31T06:01:07.196Z,9.40
2018-01-31T06:02:07.193Z,11.10
2018-01-31T06:03:07.248Z,10.80
2018-01-31T06:04:07.188Z,12.30
2018-01-31T06:05:07.184Z,12.40
2018-01-31T06:06:07.182Z,12.30
2018-01-31T06:07:07.178Z,13.00
2018-01-31T06:08:07.222Z,10.90
2018-01-31T06:09:07.223Z,13.80
2018-01-31T06:10:07.175Z,14.60
2018-01-31T06:11:07.168Z,11.00
2018-01-31T06:12:07.719Z,10.00
2018-01-31T06:13:07.161Z,6.40
2018-01-31T06:14:07.202Z,12.00
2018-01-31T06:15:07.156Z,15.20
2018-01-31T06:16:07.158Z,11.00
2018-01-31T06:17:07.152Z,13.60
2018-01-31T06:18:07.149Z,10.30
2018-01-31T06:19:07.206Z,9.40
2018-01-31T06:20:07.143Z,11.00
2018-01-31T06:21:07.143Z,9.40
2018-01-31T06:22:07.142Z,9.40
2018-01-31T06:23:07.188Z,7.50
2018-01-31T06:24:07.138Z,10.40
2018-01-31T06:25:07.133Z,10.10
2018-01-31T06:26:07.128Z,9.50
2018-01-31T06:27:07.125Z,10.00
2018-01-31T06:28:07.173Z,10.00
2018-01-31T06:29:07.119Z,6.50
2018-01-31T06:30:07.118Z,9.80
2018-01-31T06:31:07.117Z,6.40
2018-01-31T06:32:07.115Z,5.50
2018-01-31T06:33:07.153Z,7.90
2018-01-31T06:34:07.111Z,7.40
2018-01-31T06:35:07.104Z,6.90
2018-01-31T06:36:08.086Z,8.10
2018-01-31T06:37:07.103Z,8.70
2018-01-31T06:38:07.153Z,6.80
2018-01-31T06:39:07.100Z,7.30
2018-01-31T06:40:07.092Z,9.80
2018-01-31T06:41:07.101Z,5.80
2018-01-31T06:42:07.092Z,8.20
2018-01-31T06:43:07.144Z,6.30
2018-01-31T06:44:07.085Z,6.90
2018-01-31T06:45:07.087Z,8.00
2018-01-31T06:46:07.079Z,8.20
2018-01-31T06:47:07.115Z,9.70
2018-01-31T06:48:07.119Z,9.50
2018-01-31T06:49:07.116Z,8.10
2018-01-31T06:50:07.072Z,9.90
2018-01-31T06:51:07.067Z,8.20
2018-01-31T06:52:07.082Z,7.00
2018-01-31T06:53:07.122Z,8.10
2018-01-31T06:54:07.060Z,8.80
2018-01-31T06:55:07.060Z,9.00
2018-01-31T06:56:08.743Z,9.50
2018-01-31T06:57:07.102Z,9.20
2018-01-31T06:58:07.097Z,8.90
2018-01-31T06:59:07.049Z,7.90
2018-01-31T07:00:07.070Z,7.00
2018-01-31T07:01:07.046Z,8.50
2018-01-31T07:02:07.043Z,9.00
2018-01-31T07:03:07.082Z,8.90
2018-01-31T07:04:07.041Z,9.80
2018-01-31T07:05:07.041Z,8.10
2018-01-31T07:06:07.038Z,6.00
2018-01-31T07:07:07.035Z,8.10
2018-01-31T07:08:07.084Z,6.30
2018-01-31T07:09:07.028Z,5.90
2018-01-31T07:10:07.053Z,7.60
2018-01-31T07:11:07.024Z,7.60
2018-01-31T07:12:07.021Z,7.10
2018-01-31T07:13:07.058Z,6.40
2018-01-31T07:14:07.017Z,7.50
2018-01-31T07:15:07.011Z,6.50
2018-01-31T07:16:07.053Z,7.70
2018-01-31T07:17:07.014Z,6.70
2018-01-31T07:18:07.046Z,7.80
2018-01-31T07:19:07.005Z,6.80
2018-01-31T07:20:07.006Z,5.30
2018-01-31T07:21:07.000Z,8.80
2018-01-31T07:22:07.005Z,9.10
2018-01-31T07:23:07.471Z,6.50
2018-01-31T07:24:06.993Z,6.40
2018-01-31T07:25:06.992Z,7.80
2018-01-31T07:26:06.991Z,7.90
2018-01-31T07:27:07.028Z,5.50
2018-01-31T07:28:06.985Z,6.20
2018-01-31T07:29:07.025Z,5.40
2018-01-31T07:30:06.985Z,6.50
2018-01-31T07:31:06.977Z,5.10
2018-01-31T07:32:06.987Z,5.40
2018-01-31T07:33:06.977Z,7.00
2018-01-31T07:34:07.013Z,4.00
2018-01-31T07:35:06.968Z,3.80
2018-01-31T07:36:06.968Z,5.40
2018-01-31T07:37:06.969Z,4.70
2018-01-31T07:38:06.966Z,4.20
2018-01-31T07:39:07.006Z,4.50
2018-01-31T07:40:06.968Z,4.20
2018-01-31T07:41:06.958Z,5.20
2018-01-31T07:42:06.957Z,2.90
2018-01-31T07:43:06.960Z,4.10
2018-01-31T07:44:06.995Z,3.80
2018-01-31T07:45:06.953Z,3.50
2018-01-31T07:46:06.947Z,4.20
2018-01-31T07:47:06.947Z,4.20
2018-01-31T07:48:07.342Z,4.60
2018-01-31T07:49:06.944Z,4.00
2018-01-31T07:50:06.983Z,2.90
2018-01-31T07:51:06.968Z,4.10
2018-01-31T07:52:06.935Z,4.30
2018-01-31T07:53:06.935Z,3.20
2018-01-31T07:54:06.934Z,4.40
2018-01-31T07:55:06.969Z,4.20
2018-01-31T07:56:06.929Z,5.20
2018-01-31T07:57:06.927Z,3.10
2018-01-31T07:58:06.926Z,3.00
2018-01-31T07:59:06.923Z,3.60
2018-01-31T08:00:06.962Z,3.30
2018-01-31T08:01:06.923Z,2.80
2018-01-31T08:02:07.831Z,2.70
2018-01-31T08:03:06.917Z,3.10
2018-01-31T08:04:06.921Z,2.10
2018-01-31T08:05:06.957Z,2.10
2018-01-31T08:06:06.914Z,2.40
2018-01-31T08:07:06.911Z,2.30
2018-01-31T08:08:06.908Z,1.60
2018-01-31T08:09:06.906Z,1.80
2018-01-31T08:10:06.964Z,1.50
2018-01-31T08:11:06.961Z,1.80
2018-01-31T08:12:06.901Z,1.70
2018-01-31T08:13:06.898Z,2.00
2018-01-31T08:14:06.898Z,1.70
2018-01-31T08:15:06.898Z,1.10
2018-01-31T08:16:06.942Z,1.50
2018-01-31T08:17:06.896Z,1.40
2018-01-31T08:18:06.891Z,1.60
2018-01-31T08:19:06.891Z,1.70
2018-01-31T08:20:06.888Z,1.80
2018-01-31T08:21:06.943Z,1.50
2018-01-31T08:22:06.888Z,1.30
2018-01-31T08:23:06.882Z,1.20
2018-01-31T08:24:06.883Z,1.40
2018-01-31T08:25:06.881Z,1.30
2018-01-31T08:26:06.920Z,1.20
2018-01-31T08:27:06.919Z,1.30
2018-01-31T08:28:06.877Z,0.90
2018-01-31T08:29:06.877Z,1.30
2018-01-31T08:30:06.874Z,1.30
2018-01-31T08:31:06.871Z,1.20
2018-01-31T08:32:06.909Z,1.60
2018-01-31T08:33:06.870Z,1.40
2018-01-31T08:34:06.869Z,1.50
2018-01-31T08:35:06.868Z,1.40
2018-01-31T08:36:06.867Z,1.50
2018-01-31T08:37:06.900Z,1.30
2018-01-31T08:38:06.862Z,1.20
2018-01-31T08:39:06.858Z,1.30
2018-01-31T08:40:06.860Z,1.60
2018-01-31T08:41:06.861Z,1.10
2018-01-31T08:42:06.897Z,1.40
2018-01-31T08:43:06.854Z,1.80
2018-01-31T08:44:06.853Z,1.20
2018-01-31T08:45:06.849Z,1.70
2018-01-31T08:46:06.906Z,1.60
2018-01-31T08:47:06.851Z,1.50
2018-01-31T08:48:06.847Z,2.00
2018-01-31T08:49:06.845Z,1.50
2018-01-31T08:50:06.861Z,1.90
2018-01-31T08:51:06.896Z,1.50
2018-01-31T08:52:06.880Z,2.50
2018-01-31T08:53:06.840Z,2.50
2018-01-31T08:54:06.836Z,1.90
2018-01-31T08:55:06.940Z,1.20
2018-01-31T08:56:06.833Z,2.00
2018-01-31T08:57:06.895Z,1.50
2018-01-31T08:58:06.830Z,1.90
2018-01-31T08:59:06.826Z,1.60
2018-01-31T09:00:07.387Z,1.30
2018-01-31T09:01:06.869Z,1.40
2018-01-31T09:02:06.827Z,1.80
2018-01-31T09:03:06.860Z,1.20
2018-01-31T09:04:06.820Z,1.10
2018-01-31T09:05:06.821Z,1.10
2018-01-31T09:06:06.822Z,1.20
2018-01-31T09:07:06.823Z,6.20
2018-01-31T09:08:06.881Z,2.20
2018-01-31T09:09:06.814Z,2.00
2018-01-31T09:10:06.810Z,3.20
2018-01-31T09:11:06.811Z,1.60
2018-01-31T09:12:06.847Z,0.80
2018-01-31T09:13:06.869Z,1.50
2018-01-31T09:14:06.809Z,2.20
2018-01-31T09:15:06.821Z,1.20
2018-01-31T09:16:06.807Z,1.60
2018-01-31T09:17:06.803Z,2.50
2018-01-31T09:18:06.847Z,1.90
2018-01-31T09:19:06.801Z,2.50
2018-01-31T09:20:06.800Z,1.70
2018-01-31T09:21:06.799Z,2.70
2018-01-31T09:22:06.824Z,1.60
2018-01-31T09:23:06.856Z,1.50
2018-01-31T09:24:06.796Z,2.10
2018-01-31T09:25:06.844Z,1.50
2018-01-31T09:26:06.793Z,1.20
2018-01-31T09:27:06.834Z,1.30
2018-01-31T09:28:06.790Z,1.40
2018-01-31T09:29:06.834Z,1.10
2018-01-31T09:30:06.790Z,3.30
2018-01-31T09:31:06.792Z,1.40
2018-01-31T09:32:06.792Z,2.50
2018-01-31T09:33:06.786Z,1.40
2018-01-31T09:34:06.830Z,1.30
2018-01-31T09:35:07.543Z,1.30
2018-01-31T09:36:06.787Z,1.90
2018-01-31T09:37:06.786Z,1.50
2018-01-31T09:38:06.791Z,1.30
2018-01-31T09:39:07.547Z,0.70
2018-01-31T09:40:06.785Z,1.20
2018-01-31T09:41:06.786Z,0.90
2018-01-31T09:42:06.792Z,1.00
2018-01-31T09:43:06.786Z,0.80
2018-01-31T09:44:06.841Z,0.90
2018-01-31T09:45:06.790Z,0.80
2018-01-31T09:46:06.789Z,0.90
2018-01-31T09:47:06.787Z,0.60
2018-01-31T09:48:06.826Z,0.70
2018-01-31T09:49:06.789Z,1.30
2018-01-31T09:50:06.828Z,0.50
2018-01-31T09:51:06.788Z,0.70
2018-01-31T09:52:06.790Z,0.80
2018-01-31T09:53:06.846Z,0.40
2018-01-31T09:54:06.790Z,0.50
2018-01-31T09:55:06.792Z,0.40
2018-01-31T09:56:06.791Z,0.60
2018-01-31T09:57:06.858Z,0.80
2018-01-31T09:58:06.791Z,0.40
2018-01-31T09:59:06.795Z,0.80
2018-01-31T10:00:06.792Z,1.30
2018-01-31T10:01:06.834Z,2.50
2018-01-31T10:02:06.798Z,3.90
2018-01-31T10:03:06.795Z,0.50
2018-01-31T10:04:06.829Z,1.40
2018-01-31T10:05:06.796Z,0.80
2018-01-31T10:06:06.798Z,0.70
2018-01-31T10:07:06.797Z,1.00
2018-01-31T10:08:06.797Z,0.50
2018-01-31T10:09:06.990Z,0.60
2018-01-31T10:10:06.798Z,0.80
2018-01-31T10:11:06.844Z,0.60
2018-01-31T10:12:06.821Z,0.70
2018-01-31T10:13:07.537Z,2.80
2018-01-31T10:14:06.854Z,1.40
2018-01-31T10:15:06.805Z,1.30
2018-01-31T10:16:06.828Z,1.00
2018-01-31T10:17:06.836Z,1.30
2018-01-31T10:18:06.837Z,3.00
2018-01-31T10:19:06.822Z,2.20
2018-01-31T10:20:06.861Z,0.80
2018-01-31T10:21:06.836Z,1.90
2018-01-31T10:22:06.801Z,1.30
2018-01-31T10:23:06.796Z,0.80
2018-01-31T10:24:06.800Z,0.80
2018-01-31T10:25:06.796Z,1.20
2018-01-31T10:26:06.836Z,0.50
2018-01-31T10:27:06.804Z,0.60
2018-01-31T10:28:06.940Z,0.60
2018-01-31T10:29:06.797Z,1.00
2018-01-31T10:30:06.799Z,0.60
2018-01-31T10:31:06.854Z,0.60
2018-01-31T10:32:07.458Z,0.60
2018-01-31T10:33:06.814Z,0.80
2018-01-31T10:34:06.797Z,0.60
2018-01-31T10:35:06.831Z,0.60
2018-01-31T10:36:06.791Z,0.40
2018-01-31T10:37:06.817Z,0.50
2018-01-31T10:38:06.818Z,0.50
2018-01-31T10:39:06.815Z,0.50
2018-01-31T10:40:06.843Z,0.80
2018-01-31T10:41:06.798Z,0.80
2018-01-31T10:42:06.794Z,0.90
2018-01-31T10:43:06.790Z,0.60
2018-01-31T10:44:06.790Z,0.30
2018-01-31T10:45:06.791Z,0.50
2018-01-31T10:46:06.844Z,0.50
2018-01-31T10:47:06.792Z,0.70
2018-01-31T10:48:06.790Z,0.70
2018-01-31T10:49:06.789Z,0.40
2018-01-31T10:50:06.796Z,0.40
2018-01-31T10:51:06.792Z,0.50
2018-01-31T10:52:06.830Z,0.50
2018-01-31T10:53:06.790Z,0.40
2018-01-31T10:57:29.011Z,0.40
2018-01-31T10:58:06.771Z,0.60
2018-01-31T10:59:06.772Z,0.90
2018-01-31T11:00:06.770Z,0.60
2018-01-31T11:01:06.772Z,0.50
2018-01-31T11:02:06.835Z,0.40
2018-01-31T11:03:06.774Z,0.40
2018-01-31T11:04:06.769Z,0.50
2018-01-31T11:05:06.797Z,0.50
2018-01-31T11:06:06.771Z,0.80
2018-01-31T11:07:06.772Z,1.10
2018-01-31T11:08:06.812Z,0.60
2018-01-31T11:09:06.813Z,0.60
2018-01-31T11:10:06.776Z,1.20
2018-01-31T11:11:06.775Z,0.50
2018-01-31T11:12:06.776Z,0.60
2018-01-31T11:13:06.825Z,1.40
2018-01-31T11:14:06.777Z,1.20
2018-01-31T11:15:06.776Z,0.70
2018-01-31T11:16:06.782Z,0.60
2018-01-31T11:17:06.777Z,0.70
2018-01-31T11:18:06.815Z,1.30
2018-01-31T11:19:06.794Z,0.80
2018-01-31T11:20:06.821Z,0.60
2018-01-31T11:21:06.777Z,0.80
2018-01-31T11:22:06.780Z,0.90
2018-01-31T11:23:06.817Z,0.90
2018-01-31T11:24:06.781Z,1.70
2018-01-31T11:25:06.780Z,0.70
2018-01-31T11:26:06.781Z,1.30
2018-01-31T11:27:06.823Z,0.50
2018-01-31T11:28:06.818Z,0.60
2018-01-31T11:29:06.779Z,0.80
2018-01-31T11:30:06.783Z,0.80
2018-01-31T11:31:06.783Z,0.60
2018-01-31T11:32:06.840Z,0.90
2018-01-31T11:33:06.788Z,1.50
2018-01-31T11:34:06.862Z,0.70
2018-01-31T11:35:06.782Z,0.60
2018-01-31T11:36:06.782Z,1.70
2018-01-31T11:37:06.784Z,0.60
2018-01-31T11:38:06.783Z,1.00
2018-01-31T11:39:06.825Z,0.70
2018-01-31T11:40:06.785Z,1.20
2018-01-31T11:41:06.789Z,1.20
2018-01-31T11:42:06.825Z,0.80
2018-01-31T11:43:06.785Z,0.50
2018-01-31T11:44:06.790Z,0.70
2018-01-31T11:45:06.789Z,0.60
2018-01-31T11:46:06.787Z,0.40
2018-01-31T11:47:06.829Z,0.50
2018-01-31T11:48:06.792Z,0.70
2018-01-31T11:49:06.800Z,0.50
2018-01-31T11:50:06.792Z,1.80
2018-01-31T11:51:06.950Z,0.80
2018-01-31T11:52:06.851Z,0.70
2018-01-31T11:53:06.793Z,0.50
2018-01-31T11:54:06.836Z,1.30
2018-01-31T11:55:06.796Z,1.20
2018-01-31T11:56:06.797Z,0.80
2018-01-31T11:57:06.799Z,0.60
2018-01-31T11:58:06.854Z,1.00
2018-01-31T11:59:06.836Z,1.00
2018-01-31T12:00:06.798Z,0.90
2018-01-31T12:01:07.580Z,2.10
2018-01-31T12:02:06.800Z,1.70
2018-01-31T12:03:06.837Z,1.70
2018-01-31T12:04:06.816Z,1.00
2018-01-31T12:05:06.799Z,1.30
2018-01-31T12:06:06.801Z,0.70
2018-01-31T12:07:06.798Z,2.40
2018-01-31T12:08:06.841Z,1.70
2018-01-31T12:09:06.803Z,1.40
2018-01-31T12:10:07.496Z,0.90
2018-01-31T12:11:06.800Z,2.10
2018-01-31T12:12:06.803Z,1.40
2018-01-31T12:13:06.861Z,2.10
2018-01-31T12:14:06.863Z,3.10
2018-01-31T12:15:06.803Z,2.90
2018-01-31T12:16:06.809Z,2.00
2018-01-31T12:17:06.805Z,0.60
2018-01-31T12:18:06.810Z,1.80
2018-01-31T12:19:06.868Z,1.90
2018-01-31T12:20:06.809Z,2.60
2018-01-31T12:21:06.810Z,2.00
2018-01-31T12:22:07.390Z,3.40
2018-01-31T12:23:06.848Z,2.80
2018-01-31T12:24:06.812Z,3.00
2018-01-31T12:25:06.851Z,1.20
2018-01-31T12:26:06.818Z,0.80
2018-01-31T12:27:06.816Z,3.20
2018-01-31T12:28:06.815Z,0.80
2018-01-31T12:29:06.811Z,3.10
2018-01-31T12:30:06.858Z,2.40
2018-01-31T12:31:06.813Z,2.30
2018-01-31T12:32:06.812Z,1.50
2018-01-31T12:33:06.813Z,2.20
2018-01-31T12:34:06.816Z,2.10
2018-01-31T12:35:06.873Z,1.10
2018-01-31T12:36:06.811Z,0.90
2018-01-31T12:37:06.816Z,1.20
2018-01-31T12:38:07.218Z,2.30
2018-01-31T12:39:06.813Z,0.80
2018-01-31T12:40:06.852Z,1.20
2018-01-31T12:41:06.859Z,2.70
2018-01-31T12:42:06.815Z,1.50
2018-01-31T12:43:06.816Z,1.00
2018-01-31T12:44:06.830Z,1.60
2018-01-31T12:45:06.814Z,1.30
2018-01-31T12:46:06.852Z,0.40
2018-01-31T12:47:06.815Z,1.20
2018-01-31T12:48:06.814Z,1.60
2018-01-31T12:49:06.813Z,1.30
2018-01-31T12:50:06.872Z,2.10
2018-01-31T12:51:06.813Z,1.00
2018-01-31T12:52:06.812Z,0.70
2018-01-31T12:53:06.815Z,1.20
2018-01-31T12:54:06.820Z,1.20
2018-01-31T12:55:06.812Z,1.00
2018-01-31T12:56:06.873Z,0.90
2018-01-31T12:57:06.814Z,1.10
2018-01-31T12:58:06.873Z,0.70
2018-01-31T12:59:06.812Z,1.30
2018-01-31T13:00:06.814Z,0.90
2018-01-31T13:01:06.810Z,2.20
2018-01-31T13:02:06.852Z,1.40
2018-01-31T13:03:07.213Z,2.50
2018-01-31T13:04:06.815Z,2.60
2018-01-31T13:05:06.812Z,2.10
2018-01-31T13:06:06.814Z,3.40
2018-01-31T13:07:06.868Z,1.10
2018-01-31T13:08:06.812Z,1.30
2018-01-31T13:09:06.948Z,0.60
2018-01-31T13:10:06.812Z,0.70
2018-01-31T13:11:06.810Z,2.10
2018-01-31T13:12:06.853Z,2.20
2018-01-31T13:13:06.810Z,1.20
2018-01-31T13:14:06.810Z,1.20
2018-01-31T13:15:06.812Z,1.20
2018-01-31T13:16:06.812Z,0.50
2018-01-31T13:17:06.811Z,1.00
2018-01-31T13:18:06.870Z,0.60
2018-01-31T13:19:06.809Z,0.40
2018-01-31T13:20:06.809Z,0.40
2018-01-31T13:21:06.809Z,1.10
2018-01-31T13:22:06.851Z,2.00
2018-01-31T13:23:06.865Z,1.50
2018-01-31T13:24:07.240Z,1.70
2018-01-31T13:25:06.813Z,2.60
2018-01-31T13:26:06.806Z,2.50
2018-01-31T13:27:06.846Z,1.30
2018-01-31T13:28:06.844Z,1.00
2018-01-31T13:29:06.805Z,0.80
2018-01-31T13:30:06.932Z,0.60
2018-01-31T13:31:06.804Z,1.30
2018-01-31T13:32:06.804Z,0.60
2018-01-31T13:33:06.844Z,0.70
2018-01-31T13:34:06.805Z,0.50
2018-01-31T13:35:06.804Z,1.10
2018-01-31T13:36:06.801Z,0.80
2018-01-31T13:37:06.803Z,2.60
2018-01-31T13:38:06.842Z,0.70
2018-01-31T13:39:06.798Z,0.70
2018-01-31T13:40:06.880Z,1.30
2018-01-31T13:41:06.798Z,1.50
2018-01-31T13:42:06.802Z,0.90
2018-01-31T13:43:06.854Z,1.20
2018-01-31T13:44:06.796Z,1.20
2018-01-31T13:45:06.797Z,1.20
2018-01-31T13:46:06.796Z,1.10
2018-01-31T13:47:06.854Z,1.30
2018-01-31T13:48:06.793Z,0.80
2018-01-31T13:49:06.793Z,0.90
2018-01-31T13:50:07.516Z,1.00
2018-01-31T13:51:06.791Z,1.10
2018-01-31T13:52:06.852Z,0.70
2018-01-31T13:53:06.798Z,0.50
2018-01-31T13:54:06.796Z,1.00
2018-01-31T13:55:06.806Z,0.80
2018-01-31T13:56:07.957Z,0.70
2018-01-31T13:57:06.831Z,0.60
2018-01-31T13:58:06.793Z,0.70
2018-01-31T13:59:06.833Z,0.50
2018-01-31T14:00:06.793Z,0.70
2018-01-31T14:01:06.792Z,0.80
2018-01-31T14:02:06.791Z,0.40
2018-01-31T14:03:06.788Z,0.70
2018-01-31T14:04:06.833Z,0.40
2018-01-31T14:05:06.846Z,0.90
2018-01-31T14:06:06.791Z,0.70
2018-01-31T14:07:06.792Z,0.50
2018-01-31T14:08:06.792Z,0.40
2018-01-31T14:09:06.851Z,0.30
2018-01-31T14:10:06.791Z,0.60
2018-01-31T14:11:06.788Z,0.80
2018-01-31T14:12:06.851Z,0.70
2018-01-31T14:13:06.788Z,0.80
2018-01-31T14:14:06.790Z,0.60
2018-01-31T14:15:06.789Z,0.70
2018-01-31T14:16:06.837Z,0.90
2018-01-31T14:17:06.787Z,1.00
2018-01-31T14:18:06.795Z,1.00
2018-01-31T14:19:06.790Z,0.90
2018-01-31T14:20:06.826Z,0.80
2018-01-31T14:21:06.787Z,1.30
2018-01-31T14:22:06.788Z,1.50
2018-01-31T14:23:06.799Z,1.40
2018-01-31T14:24:06.789Z,2.50
2018-01-31T14:25:06.848Z,0.80
2018-01-31T14:26:06.842Z,0.60
2018-01-31T14:27:06.783Z,1.20
2018-01-31T14:28:06.785Z,1.90
2018-01-31T14:29:06.783Z,1.50
2018-01-31T14:30:06.786Z,1.50
2018-01-31T14:31:06.818Z,1.90
2018-01-31T14:32:06.795Z,1.40
2018-01-31T14:33:06.782Z,1.20
2018-01-31T14:34:06.780Z,1.50
2018-01-31T14:35:06.810Z,0.90
2018-01-31T14:36:06.998Z,1.10
2018-01-31T14:37:06.780Z,1.00
2018-01-31T14:38:06.779Z,1.20
2018-01-31T14:39:06.775Z,1.10
2018-01-31T14:40:06.778Z,1.30
2018-01-31T14:41:06.832Z,1.20
2018-01-31T14:42:06.774Z,1.50
2018-01-31T14:43:06.772Z,1.30
2018-01-31T14:44:06.773Z,1.30
2018-01-31T14:45:06.996Z,1.60
2018-01-31T14:46:06.841Z,0.80
2018-01-31T14:47:06.776Z,1.30
2018-01-31T14:48:06.771Z,1.40
2018-01-31T14:49:06.793Z,1.20
2018-01-31T14:50:06.768Z,1.40
2018-01-31T14:51:06.824Z,1.10
2018-01-31T14:52:06.765Z,1.80
2018-01-31T14:53:06.763Z,1.40
2018-01-31T14:54:06.770Z,1.30
2018-01-31T14:55:06.767Z,1.70
2018-01-31T14:56:06.800Z,1.60
2018-01-31T14:57:06.821Z,1.20
2018-01-31T14:58:06.760Z,1.40
2018-01-31T14:59:06.760Z,1.60
2018-01-31T15:00:08.533Z,1.20
2018-01-31T15:01:08.125Z,1.00
2018-01-31T15:02:06.815Z,1.80
2018-01-31T15:03:06.754Z,1.60
2018-01-31T15:04:06.753Z,1.40
2018-01-31T15:05:06.754Z,1.00
2018-01-31T15:06:06.812Z,1.20
2018-01-31T15:07:07.471Z,1.70
2018-01-31T15:08:06.850Z,1.40